Time;durP1;ratioP1;P1;durP2;ratioP2;P2;SDS_P1;SDS_P2;PMS_P1;PMS_P2;Temp;Humidity;BMP_temperature;BMP_pressure;BME280_temperature;BME280_humidity;BME280_pressure;Samples;Min_cycle;Max_cycle;Signal;HPM_P1;HPM_P2
2021/05/17 00:00:57;;;;;;;25.30;9.98;;;;;;;8.10;73.72;97845.79;1963227;91;21068;-62
2021/05/17 00:03:59;;;;;;;26.68;10.95;;;;;;;8.02;74.04;97846.31;1996297;89;21096;-62
2021/05/17 00:07:01;;;;;;;31.68;12.73;;;;;;;8.01;74.45;97843.80;1963397;91;21604;-63
2021/05/17 00:10:02;;;;;;;30.47;11.27;;;;;;;7.97;74.44;97837.92;1996450;89;21056;-62
2021/05/17 00:13:04;;;;;;;20.05;6.15;;;;;;;7.90;74.38;97843.19;1981312;90;21115;-65
2021/05/17 00:16:05;;;;;;;24.10;8.00;;;;;;;7.83;74.48;97842.77;1996277;89;21108;-62
2021/05/17 00:19:07;;;;;;;30.35;11.08;;;;;;;7.78;74.87;97844.83;1981286;90;21578;-62
2021/05/17 00:22:09;;;;;;;24.60;10.47;;;;;;;7.76;74.84;97835.80;1996420;89;21108;-63
2021/05/17 00:25:10;;;;;;;27.17;10.68;;;;;;;7.76;74.85;97834.97;1981202;90;21058;-64
2021/05/17 00:28:11;;;;;;;28.45;11.55;;;;;;;7.76;75.16;97833.67;1995990;89;21060;-64
2021/05/17 00:31:13;;;;;;;26.23;11.00;;;;;;;7.74;75.00;97830.30;1981178;90;21111;-68
2021/05/17 00:34:14;;;;;;;24.57;9.48;;;;;;;7.72;75.65;97826.97;1995996;89;21520;-64
2021/05/17 00:37:16;;;;;;;19.62;7.50;;;;;;;7.71;74.88;97823.50;1981361;90;21051;-62
2021/05/17 00:40:17;;;;;;;19.00;6.80;;;;;;;7.70;75.02;97827.08;1996535;89;21021;-63
2021/05/17 00:43:19;;;;;;;20.95;7.83;;;;;;;7.67;74.83;97815.98;1981366;90;21953;-63
2021/05/17 00:46:20;;;;;;;21.02;8.15;;;;;;;7.62;75.18;97811.89;1996404;89;21033;-62
2021/05/17 00:49:22;;;;;;;23.02;9.23;;;;;;;7.62;75.98;97811.06;1981092;90;21066;-64
2021/05/17 00:52:24;;;;;;;24.75;10.03;;;;;;;7.63;75.98;97813.58;1996147;89;21053;-62
2021/05/17 00:55:26;;;;;;;;;;;;;;;7.63;76.02;97807.05;1983465;90;21602;-62
2021/05/17 00:58:27;;;;;;;23.32;9.40;;;;;;;7.71;76.35;97807.84;1981432;89;20166;-62
2021/05/17 01:01:28;;;;;;;25.65;9.55;;;;;;;7.67;76.28;97808.15;2002738;89;21084;-62
2021/05/17 01:04:30;;;;;;;25.13;10.43;;;;;;;7.68;76.58;97809.83;1982376;90;21166;-63
2021/05/17 01:07:31;;;;;;;22.35;8.38;;;;;;;7.66;76.55;97807.77;2002842;88;21100;-63
2021/05/17 01:10:33;;;;;;;19.57;7.95;;;;;;;7.65;76.30;97806.95;1982233;90;21550;-62
2021/05/17 01:13:34;;;;;;;22.75;9.30;;;;;;;7.66;76.58;97809.08;2002860;89;21052;-63
2021/05/17 01:16:36;;;;;;;22.58;9.38;;;;;;;7.66;77.10;97800.80;1982569;90;21182;-63
2021/05/17 01:19:37;;;;;;;22.80;9.70;;;;;;;7.63;76.99;97804.44;2002962;89;21552;-63
2021/05/17 01:22:50;;;;;;;22.32;9.73;;;;;;;7.61;76.97;97802.86;1982274;90;21103;-65
2021/05/17 01:25:42;;;;;;;21.75;8.73;;;;;;;7.58;76.99;97800.45;2023317;87;21182;-66
2021/05/17 01:28:44;;;;;;;20.90;8.05;;;;;;;7.55;76.90;97802.79;1982278;90;21092;-65
2021/05/17 01:31:45;;;;;;;21.10;8.55;;;;;;;7.56;77.19;97797.95;2003061;89;21037;-64
2021/05/17 01:34:47;;;;;;;22.85;8.55;;;;;;;7.55;77.37;97796.75;1982642;90;21063;-65
2021/05/17 01:37:48;;;;;;;23.05;8.43;;;;;;;7.55;77.24;97794.96;2002753;89;21077;-63
2021/05/17 01:40:50;;;;;;;21.17;7.87;;;;;;;7.53;76.87;97798.16;1982365;90;21083;-64
2021/05/17 01:43:53;;;;;;;19.95;8.13;;;;;;;7.56;77.04;97796.64;2003007;89;21085;-65
2021/05/17 01:46:54;;;;;;;18.77;7.00;;;;;;;7.58;77.10;97796.06;1982378;90;21111;-67
2021/05/17 01:49:56;;;;;;;19.80;7.03;;;;;;;7.64;77.35;97805.27;2002763;89;21667;-62
2021/05/17 01:52:57;;;;;;;20.17;7.72;;;;;;;7.63;77.30;97799.22;1982287;90;21091;-62
2021/05/17 01:55:58;;;;;;;20.23;8.00;;;;;;;7.68;77.79;97796.30;2003023;89;21092;-62
2021/05/17 01:59:00;;;;;;;21.93;8.97;;;;;;;7.71;77.76;97793.48;1982367;89;21135;-64
2021/05/17 02:02:02;;;;;;;21.60;9.18;;;;;;;7.83;78.08;97791.01;2002785;89;21052;-63
2021/05/17 02:05:03;;;;;;;18.67;6.87;;;;;;;7.96;78.01;97798.41;1982135;90;21091;-64
2021/05/17 02:08:04;;;;;;;19.77;7.37;;;;;;;8.03;77.13;97807.52;2002787;89;21037;-62
2021/05/17 02:11:06;;;;;;;20.30;7.15;;;;;;;8.05;76.92;97803.01;1982132;90;21574;-63
2021/05/17 02:14:07;;;;;;;20.12;7.90;;;;;;;7.99;76.68;97796.90;2002758;89;21064;-62
2021/05/17 02:17:09;;;;;;;19.95;7.80;;;;;;;7.94;77.12;97793.75;1982252;90;21075;-62
2021/05/17 02:20:10;;;;;;;20.30;7.87;;;;;;;7.92;77.29;97797.77;2002867;89;21116;-62
2021/05/17 02:23:12;;;;;;;19.45;7.45;;;;;;;7.92;77.54;97802.16;1982483;90;21104;-64
2021/05/17 02:26:13;;;;;;;19.42;7.42;;;;;;;7.92;77.73;97800.38;2002675;89;21644;-67
2021/05/17 02:29:15;;;;;;;19.82;7.85;;;;;;;7.95;77.94;97811.92;1982212;90;21075;-64
2021/05/17 02:32:16;;;;;;;21.10;8.33;;;;;;;8.04;77.83;97812.25;2002788;89;21096;-62
2021/05/17 02:35:18;;;;;;;21.10;8.13;;;;;;;8.14;77.81;97821.14;1982124;90;21549;-61
2021/05/17 02:38:19;;;;;;;19.50;7.47;;;;;;;8.11;77.17;97827.41;2002764;89;21116;-62
2021/05/17 02:41:20;;;;;;;21.55;7.47;;;;;;;8.17;77.44;97828.77;1982123;90;21019;-66
2021/05/17 02:44:22;;;;;;;20.17;7.80;;;;;;;8.17;77.32;97831.38;2002710;89;21012;-62
2021/05/17 02:47:24;;;;;;;21.87;9.80;;;;;;;8.22;77.29;97823.26;1982145;90;21103;-63
2021/05/17 02:50:26;;;;;;;19.67;7.47;;;;;;;8.17;77.26;97826.16;2002838;88;21076;-65
2021/05/17 02:53:27;;;;;;;19.07;7.05;;;;;;;8.25;77.00;97820.44;1982452;90;21035;-65
2021/05/17 02:56:28;;;;;;;22.40;7.72;;;;;;;8.13;77.27;97819.45;2002821;89;21620;-62
2021/05/17 02:59:30;;;;;;;19.80;7.15;;;;;;;8.02;77.94;97815.45;1982351;89;21083;-67
2021/05/17 03:02:32;;;;;;;21.42;7.65;;;;;;;8.05;78.04;97815.24;2002771;89;21087;-62
2021/05/17 03:05:33;;;;;;;21.00;7.83;;;;;;;8.14;78.01;97810.70;1969991;90;21057;-66
2021/05/17 03:08:34;;;;;;;23.10;8.03;;;;;;;8.28;78.11;97813.21;2003185;89;21101;-65
2021/05/17 03:11:36;;;;;;;19.77;7.33;;;;;;;8.47;78.17;97817.22;1982560;90;21066;-62
2021/05/17 03:14:38;;;;;;;23.67;7.90;;;;;;;8.66;77.66;97818.94;2003075;89;21111;-63
2021/05/17 03:17:40;;;;;;;21.07;8.48;;;;;;;8.70;77.59;97816.94;1982400;90;21115;-67
2021/05/17 03:20:41;;;;;;;21.70;7.37;;;;;;;8.73;77.41;97823.73;2003173;88;21053;-62
2021/05/17 03:23:43;;;;;;;19.40;6.73;;;;;;;8.80;77.51;97833.66;1982506;90;21091;-63
2021/05/17 03:26:44;;;;;;;20.93;6.90;;;;;;;8.93;77.12;97828.41;2003003;89;21177;-69
2021/05/17 03:29:46;;;;;;;16.85;5.62;;;;;;;8.99;76.99;97831.92;1982386;90;21210;-63
2021/05/17 03:32:47;;;;;;;17.87;5.87;;;;;;;9.03;77.44;97853.45;2002801;89;21040;-62
2021/05/17 03:35:49;;;;;;;17.65;5.97;;;;;;;8.89;77.91;97860.94;1982353;90;21041;-62
2021/05/17 03:38:50;;;;;;;16.90;5.60;;;;;;;8.93;77.56;97861.09;2002777;89;21575;-62
2021/05/17 03:41:51;;;;;;;16.50;5.62;;;;;;;9.10;77.66;97858.61;1982322;90;21119;-63
2021/05/17 03:44:53;;;;;;;17.85;6.17;;;;;;;9.35;77.70;97847.70;2002902;89;21080;-63
2021/05/17 03:47:54;;;;;;;23.20;7.75;;;;;;;9.70;77.75;97849.58;1982283;90;21079;-62
2021/05/17 03:50:56;;;;;;;21.55;7.20;;;;;;;10.09;77.38;97850.69;2002916;89;21037;-64
2021/05/17 03:53:57;;;;;;;20.82;6.87;;;;;;;10.38;76.89;97845.89;1969808;90;21631;-68
2021/05/17 03:56:59;;;;;;;16.77;5.78;;;;;;;10.65;76.48;97846.06;2003082;89;21080;-66
2021/05/17 04:00:00;;;;;;;17.60;5.45;;;;;;;10.86;76.31;97844.86;1981612;89;21090;-66
2021/05/17 04:03:06;;;;;;;16.40;5.50;;;;;;;11.06;75.97;97847.23;1981466;89;21062;-66
2021/05/17 04:15:16;;;;;;;16.30;5.58;;;;;;;11.82;74.93;97835.97;1970397;90;21058;-68
2021/05/17 04:18:20;;;;;;;14.80;5.40;;;;;;;12.09;74.69;97841.60;1981266;90;21692;-63
2021/05/17 04:21:21;;;;;;;14.93;5.12;;;;;;;12.29;73.95;97832.05;1981391;90;21074;-63
2021/05/17 04:24:23;;;;;;;14.70;4.95;;;;;;;12.44;73.54;97831.27;1981485;89;21082;-62
2021/05/17 04:27:24;;;;;;;15.70;5.30;;;;;;;12.55;73.24;97828.20;1981509;90;21050;-62
2021/05/17 04:30:26;;;;;;;16.05;5.30;;;;;;;12.61;73.10;97828.52;1981521;89;21085;-63
2021/05/17 04:33:28;;;;;;;15.45;5.37;;;;;;;12.71;73.10;97825.91;1981494;89;21054;-67
2021/05/17 04:36:31;;;;;;;14.93;5.13;;;;;;;12.79;72.67;97816.89;1981842;89;21178;-62
2021/05/17 04:39:33;;;;;;;15.75;4.83;;;;;;;12.93;73.05;97816.16;1981232;89;21102;-63
2021/05/17 04:42:34;;;;;;;13.13;4.70;;;;;;;13.04;71.67;97812.13;1981246;89;21105;-62
2021/05/17 04:45:36;;;;;;;15.10;5.03;;;;;;;12.85;72.39;97811.58;1981500;89;21069;-62
2021/05/17 04:48:48;;;;;;;14.03;5.30;;;;;;;12.87;72.75;97820.16;1981372;89;21545;-65
2021/05/17 04:51:40;;;;;;;14.90;5.10;;;;;;;12.87;72.59;97825.42;1970299;90;21613;-63
2021/05/17 04:54:42;;;;;;;17.02;4.97;;;;;;;12.88;72.34;97825.78;1981472;89;21061;-65
2021/05/17 04:57:43;;;;;;;16.20;5.67;;;;;;;12.79;72.65;97824.78;1981354;89;21109;-64
2021/05/17 05:00:44;;;;;;;17.13;5.20;;;;;;;12.68;72.83;97819.60;1982087;90;21191;-64
2021/05/17 05:03:46;;;;;;;15.57;5.47;;;;;;;12.76;73.14;97828.17;2003040;89;21037;-64
2021/05/17 05:06:47;;;;;;;12.87;4.83;;;;;;;12.88;73.15;97826.28;1982427;90;21619;-72
2021/05/17 05:09:49;;;;;;;16.97;5.90;;;;;;;12.88;72.97;97823.64;2003200;88;21076;-63
2021/05/17 05:12:50;;;;;;;16.07;5.65;;;;;;;12.88;73.02;97813.94;1982493;90;21070;-65
2021/05/17 05:15:52;;;;;;;18.27;6.00;;;;;;;13.22;73.66;97814.13;2002898;89;21077;-62
2021/05/17 05:18:54;;;;;;;16.62;5.37;;;;;;;13.78;73.35;97816.16;1982554;90;21067;-63
2021/05/17 05:21:55;;;;;;;15.13;5.40;;;;;;;14.21;72.50;97806.97;2003055;89;21062;-63
2021/05/17 05:24:57;;;;;;;17.65;5.47;;;;;;;14.73;71.23;97811.03;1982299;90;21118;-62
2021/05/17 05:28:00;;;;;;;15.32;5.10;;;;;;;14.77;71.00;97822.13;2002996;88;21100;-66
2021/05/17 05:31:10;;;;;;;16.75;5.47;;;;;;;14.76;70.69;97817.84;1969762;90;21085;-63
2021/05/17 05:34:05;;;;;;;16.15;5.00;;;;;;;14.93;70.91;97822.82;2023163;87;21200;-64
2021/05/17 05:37:06;;;;;;;15.55;5.05;;;;;;;15.37;70.70;97817.27;1982300;90;21589;-65
2021/05/17 05:40:08;;;;;;;16.20;4.80;;;;;;;15.97;70.00;97813.72;2003023;89;21085;-64
2021/05/17 05:43:10;;;;;;;15.08;5.08;;;;;;;16.23;68.34;97807.14;1969710;90;22305;-63
2021/05/17 05:46:11;;;;;;;16.10;5.33;;;;;;;16.65;68.12;97801.14;2003004;89;21053;-63
2021/05/17 05:49:14;;;;;;;18.67;5.50;;;;;;;17.19;68.12;97808.02;1982502;90;21080;-64
2021/05/17 05:52:16;;;;;;;15.60;4.80;;;;;;;17.43;67.13;97800.13;2002773;88;21318;-64
2021/05/17 05:55:17;;;;;;;15.73;5.03;;;;;;;17.46;66.24;97795.01;1982431;90;21565;-64
2021/05/17 05:58:19;;;;;;;17.37;6.00;;;;;;;17.44;66.04;97796.97;2002915;88;21080;-64
2021/05/17 06:01:20;;;;;;;16.52;5.28;;;;;;;17.31;65.70;97791.66;1982249;89;21122;-63
2021/05/17 06:04:22;;;;;;;15.68;4.97;;;;;;;17.44;65.33;97793.00;2002748;89;21547;-63
2021/05/17 06:07:23;;;;;;;16.63;5.10;;;;;;;17.43;65.26;97794.02;1982475;90;21055;-63
2021/05/17 06:10:25;;;;;;;15.93;4.70;;;;;;;17.38;65.14;97797.63;2002778;89;21563;-63
2021/05/17 06:13:26;;;;;;;18.50;5.47;;;;;;;17.31;64.75;97801.41;1982364;90;21028;-64
2021/05/17 06:16:28;;;;;;;19.02;5.80;;;;;;;17.11;64.79;97800.85;2002785;89;21096;-64
2021/05/17 06:19:29;;;;;;;18.70;5.53;;;;;;;16.96;65.23;97806.75;1982499;90;21062;-63
2021/05/17 06:22:31;;;;;;;15.10;4.95;;;;;;;16.90;65.45;97795.48;2003006;89;21097;-64
2021/05/17 06:25:33;;;;;;;18.30;5.65;;;;;;;16.90;65.13;97787.53;1982256;90;21542;-65
2021/05/17 06:28:34;;;;;;;16.07;4.90;;;;;;;16.85;64.34;97784.52;2002984;89;21036;-65
2021/05/17 06:31:36;;;;;;;17.48;5.47;;;;;;;16.86;65.01;97786.16;1982264;90;21207;-64
2021/05/17 06:34:38;;;;;;;;;;;;;;;16.90;64.74;97782.75;2005147;88;21065;-64
2021/05/17 06:37:39;;;;;;;17.37;5.20;;;;;;;16.82;64.14;97784.00;1982692;90;20530;-63
2021/05/17 06:40:41;;;;;;;20.03;6.27;;;;;;;16.73;64.75;97785.27;2003015;89;21025;-66
2021/05/17 06:43:42;;;;;;;17.90;5.37;;;;;;;16.83;65.08;97786.98;1982214;90;21047;-66
2021/05/17 06:46:43;;;;;;;17.77;5.80;;;;;;;16.97;64.66;97791.71;2002968;89;21089;-63
2021/05/17 06:49:46;;;;;;;18.10;5.70;;;;;;;16.99;64.51;97788.91;1982355;90;21039;-64
2021/05/17 06:52:47;;;;;;;17.98;5.83;;;;;;;17.09;64.65;97794.39;2002707;88;21065;-64
2021/05/17 07:01:55;;;;;;;16.93;5.37;;;;;;;17.96;63.55;97783.48;1983068;89;21106;-65
2021/05/17 07:04:57;;;;;;;14.95;4.90;;;;;;;18.30;63.48;97778.97;2000749;88;21065;-63
2021/05/17 07:11:34;;;;;;;;;;;;;;;18.59;62.25;97777.58;1970058;90;21653;-63
2021/05/17 07:14:06;;;;;;;16.48;4.97;;;;;;;19.23;61.32;97764.75;2023440;87;21081;-63
2021/05/17 07:17:07;;;;;;;16.00;5.08;;;;;;;19.23;61.32;97764.75;1967897;90;21049;-64
2021/05/17 07:20:10;;;;;;;15.05;4.83;;;;;;;19.34;59.94;97767.02;2000658;88;21108;-64
2021/05/17 07:26:15;;;;;;;16.37;5.45;;;;;;;19.30;59.55;97764.38;1981129;89;21161;-63
2021/05/17 07:29:17;;;;;;;;;;;;;;;19.18;59.55;97748.01;1970067;90;21567;-67
2021/05/17 07:32:19;;;;;;;;;;;;;;;19.31;59.55;97752.72;1996755;89;20256;-64
2021/05/17 07:35:20;;;;;;;19.30;7.05;;;;;;;19.59;60.27;97754.88;1994405;89;20157;-69
2021/05/17 07:38:26;;;;;;;16.75;5.80;;;;;;;20.03;59.72;97748.41;2000980;89;21092;-69
2021/05/17 07:41:25;;;;;;;18.50;6.15;;;;;;;20.16;59.10;97756.28;1949238;90;21106;-64
2021/05/17 07:44:27;;;;;;;17.87;5.58;;;;;;;20.40;59.04;97754.70;2001060;88;21572;-64
2021/05/17 07:47:28;;;;;;;18.87;5.95;;;;;;;20.62;58.11;97748.14;1968177;90;21093;-64
2021/05/17 07:50:29;;;;;;;17.82;5.58;;;;;;;20.94;58.39;97758.11;2001083;88;21635;-66
2021/05/17 07:53:31;;;;;;;14.90;4.90;;;;;;;21.04;56.73;97749.83;1968144;90;21049;-67
2021/05/17 07:56:32;;;;;;;15.65;4.53;;;;;;;21.21;56.32;97738.45;2001173;88;21088;-66
2021/05/17 07:59:34;;;;;;;13.68;4.15;;;;;;;21.26;55.77;97739.53;1968093;90;21533;-64
2021/05/17 08:02:35;;;;;;;13.38;3.90;;;;;;;;;;2002880;88;21093;-64
2021/05/17 08:05:37;;;;;;;10.63;3.02;;;;;;;21.44;55.34;97734.28;1969951;90;21077;-70
2021/05/17 08:08:38;;;;;;;11.00;2.70;;;;;;;21.49;53.78;97725.18;2003130;89;21081;-64
2021/05/17 08:11:40;;;;;;;8.95;3.08;;;;;;;21.48;52.46;97736.89;1982737;90;21154;-65
2021/05/17 08:14:42;;;;;;;;;;;;;;;21.35;52.49;97726.06;2005200;89;21136;-66
2021/05/17 08:17:44;;;;;;;12.47;3.05;;;;;;;21.28;52.66;97718.83;2003005;88;20161;-65
2021/05/17 08:20:45;;;;;;;8.53;2.35;;;;;;;21.09;52.31;97724.79;1982501;90;21666;-64
2021/05/17 08:23:47;;;;;;;10.48;2.67;;;;;;;20.82;52.08;97724.45;2003093;88;21035;-65
2021/05/17 08:26:48;;;;;;;12.13;2.92;;;;;;;20.68;52.38;97722.12;1982514;90;21637;-64
2021/05/17 08:29:50;;;;;;;12.70;3.20;;;;;;;20.78;52.88;97728.50;2003088;89;21029;-65
2021/05/17 08:32:51;;;;;;;9.55;3.02;;;;;;;21.07;53.02;97724.13;1982647;90;21134;-65
2021/05/17 08:35:53;;;;;;;9.65;2.62;;;;;;;21.28;51.97;97718.83;2002941;89;21571;-63
2021/05/17 08:38:54;;;;;;;10.60;3.08;;;;;;;21.27;50.93;97721.69;1982545;90;21118;-64
2021/05/17 08:41:55;;;;;;;12.13;2.75;;;;;;;21.19;52.03;97721.30;2002948;88;21604;-63
2021/05/17 08:45:01;;;;;;;14.38;4.30;;;;;;;21.11;50.56;97723.56;1982299;90;21174;-64
2021/05/17 08:48:02;;;;;;;9.95;2.87;;;;;;;21.04;50.26;97721.84;2002785;89;21059;-63
2021/05/17 08:51:04;;;;;;;7.42;2.72;;;;;;;20.93;50.28;97729.31;1982421;90;21031;-66
2021/05/17 08:54:06;;;;;;;10.18;2.98;;;;;;;20.84;50.18;97733.59;2003055;89;21124;-65
2021/05/17 08:57:08;;;;;;;11.28;2.90;;;;;;;20.79;50.38;97723.98;1982335;90;21082;-64
2021/05/17 09:00:09;;;;;;;10.13;2.92;;;;;;;20.82;50.99;97721.80;2002624;87;21111;-66
2021/05/17 09:03:12;;;;;;;8.85;3.40;;;;;;;20.74;49.71;97726.70;1981212;90;21054;-65
2021/05/17 09:06:22;;;;;;;9.35;2.70;;;;;;;20.57;50.10;97719.89;1996041;89;21572;-65
2021/05/17 09:09:17;;;;;;;8.63;3.20;;;;;;;20.58;50.93;97715.70;1961662;90;21719;-64
2021/05/17 09:12:18;;;;;;;12.88;3.55;;;;;;;20.55;51.17;97720.59;1996348;89;21161;-64
2021/05/17 09:15:20;;;;;;;13.25;3.80;;;;;;;20.51;51.26;97716.64;1981468;90;21090;-66
2021/05/17 09:18:22;;;;;;;15.32;3.75;;;;;;;20.51;51.92;97712.64;1996243;89;21080;-68
2021/05/17 09:21:24;;;;;;;14.40;3.60;;;;;;;20.68;52.17;97716.80;1981249;90;21078;-67
2021/05/17 09:24:25;;;;;;;16.35;4.03;;;;;;;20.94;51.67;97714.95;1996222;89;21556;-64
2021/05/17 09:27:26;;;;;;;13.00;3.92;;;;;;;21.37;50.19;97716.05;1981443;90;21035;-64
2021/05/17 09:30:28;;;;;;;14.15;3.87;;;;;;;21.94;50.98;97711.67;1996266;89;21034;-64
2021/05/17 09:33:29;;;;;;;15.53;4.85;;;;;;;22.54;49.56;97705.91;1981272;90;21043;-65
2021/05/17 09:36:31;;;;;;;14.33;3.67;;;;;;;23.03;49.13;97705.39;1996228;89;21145;-65
2021/05/17 09:39:33;;;;;;;;;;;;;;;23.26;48.48;97697.05;1983556;90;21118;-66
2021/05/17 09:42:34;;;;;;;12.27;3.20;;;;;;;23.33;48.07;97697.89;1981562;89;20170;-65
2021/05/17 09:45:35;;;;;;;16.60;3.50;;;;;;;23.40;46.61;97698.72;1996200;89;21532;-64
2021/05/17 09:48:46;;;;;;;9.03;2.00;;;;;;;23.59;47.51;97692.27;1981379;90;21059;-65
2021/05/17 09:51:40;;;;;;;7.90;2.27;;;;;;;23.84;44.52;97686.61;2020380;88;21045;-65
2021/05/17 09:54:42;;;;;;;9.20;1.65;;;;;;;24.12;44.51;97692.80;1981397;90;21050;-64
2021/05/17 09:57:43;;;;;;;6.60;1.62;;;;;;;24.34;44.42;97692.05;1996208;89;21160;-65
2021/05/17 10:00:45;;;;;;;3.62;1.47;;;;;;;24.62;44.11;97688.28;1981619;89;21087;-64
2021/05/17 10:03:46;;;;;;;4.60;2.15;;;;;;;24.60;42.99;97679.12;2002832;89;21610;-65
2021/05/17 10:06:48;;;;;;;6.60;1.40;;;;;;;24.55;42.09;97681.07;1982544;90;21035;-68
2021/05/17 10:09:49;;;;;;;4.62;1.30;;;;;;;24.46;41.66;97678.83;2002928;89;21595;-64
2021/05/17 10:12:51;;;;;;;;;;;;;;;24.35;41.58;97684.30;1984513;90;21083;-64
2021/05/17 10:15:53;;;;;;;4.40;1.12;;;;;;;24.17;40.52;97679.62;1982757;90;20533;-65
2021/05/17 10:18:54;;;;;;;3.90;1.30;;;;;;;23.92;40.59;97686.13;2002892;89;21052;-65
2021/05/17 10:21:55;;;;;;;8.28;1.82;;;;;;;23.61;41.24;97680.33;1982266;90;21059;-67
2021/05/17 10:24:57;;;;;;;8.13;1.47;;;;;;;23.49;41.79;97671.28;2002871;89;21037;-66
2021/05/17 10:27:59;;;;;;;5.78;1.60;;;;;;;23.39;41.85;97675.70;1982492;90;21078;-64
2021/05/17 10:31:01;;;;;;;;;;;;;;;23.28;41.63;97672.28;2004995;89;21167;-67
2021/05/17 10:34:02;;;;;;;8.70;2.40;;;;;;;23.13;41.93;97677.29;2003038;88;20157;-65
2021/05/17 10:37:03;;;;;;;6.53;1.25;;;;;;;23.03;42.31;97677.32;1982264;90;21384;-64
2021/05/17 10:40:05;;;;;;;7.10;1.72;;;;;;;22.92;42.16;97674.20;2002870;89;21084;-72
2021/05/17 10:43:14;;;;;;;7.47;1.87;;;;;;;22.84;42.30;97676.56;1969611;90;21595;-65
2021/05/17 10:49:14;;;;;;;11.18;2.80;;;;;;;22.54;42.62;97675.18;1959648;90;21086;-67
2021/05/17 10:52:15;;;;;;;9.20;1.85;;;;;;;22.55;42.69;97672.83;2003093;88;21085;-65
2021/05/17 10:55:17;;;;;;;5.72;1.50;;;;;;;22.41;42.68;97667.44;1982354;90;21154;-65
2021/05/17 11:00:22;;;;;;;5.10;1.45;;;;;;;22.34;42.83;97667.06;2002945;89;21116;-65
2021/05/17 11:01:21;;;;;;;3.02;1.47;;;;;;;22.42;42.89;97667.72;1959744;89;21155;-64
2021/05/17 11:04:23;;;;;;;7.70;1.95;;;;;;;22.42;43.07;97661.05;2000935;88;21053;-64
2021/05/17 11:07:25;;;;;;;5.70;1.70;;;;;;;22.38;42.56;97656.30;1967958;90;21125;-65
2021/05/17 11:10:27;;;;;;;8.23;1.62;;;;;;;22.27;42.83;97655.81;2000810;88;21044;-68
2021/05/17 11:13:28;;;;;;;9.83;2.08;;;;;;;22.31;43.06;97657.07;1968125;90;21072;-65
2021/05/17 11:16:29;;;;;;;6.12;1.77;;;;;;;22.27;43.00;97655.00;2001185;88;21132;-65
2021/05/17 11:19:31;;;;;;;6.87;1.75;;;;;;;22.34;43.03;97656.38;1968098;90;21595;-64
2021/05/17 11:22:32;;;;;;;6.17;1.50;;;;;;;22.53;42.82;97655.66;2001168;88;21051;-70
2021/05/17 11:25:34;;;;;;;5.12;1.70;;;;;;;22.68;42.42;97650.17;1968092;90;21121;-67
2021/05/17 11:28:36;;;;;;;5.35;1.80;;;;;;;22.81;41.64;97642.22;2001048;88;21096;-65
2021/05/17 11:31:42;;;;;;;5.95;1.40;;;;;;;22.88;41.14;97648.09;1967840;90;21576;-65
2021/05/17 11:34:42;;;;;;;5.92;1.70;;;;;;;23.25;42.00;97641.93;2023608;87;21572;-65
2021/05/17 11:37:43;;;;;;;4.05;1.22;;;;;;;23.33;40.35;97633.69;1968158;90;21056;-70
2021/05/17 11:40:45;;;;;;;7.03;1.52;;;;;;;23.42;41.34;97640.50;2001320;88;21089;-69
2021/05/17 11:43:46;;;;;;;6.25;1.42;;;;;;;23.63;37.67;97638.15;1968109;90;21093;-66
2021/05/17 11:46:49;;;;;;;6.40;1.35;;;;;;;23.48;40.25;97638.33;2001090;88;21057;-66
2021/05/17 11:49:51;;;;;;;7.70;2.12;;;;;;;23.62;39.86;97639.66;1967965;90;21076;-68
2021/05/17 11:52:52;;;;;;;6.75;2.00;;;;;;;23.70;38.88;97636.78;2000935;88;21053;-66
2021/05/17 11:55:53;;;;;;;10.65;2.20;;;;;;;23.67;39.15;97634.00;1967927;90;21120;-67
2021/05/17 11:58:55;;;;;;;3.25;1.30;;;;;;;23.63;39.26;97633.29;2001059;88;21081;-67
2021/05/17 12:01:56;;;;;;;8.23;1.87;;;;;;;23.73;39.75;97632.88;1966378;90;21643;-64
2021/05/17 12:08:01;;;;;;;3.52;1.05;;;;;;;24.10;39.70;97633.27;1961734;90;21142;-65
2021/05/17 12:11:02;;;;;;;9.78;1.67;;;;;;;24.14;38.52;97629.15;1996442;89;21057;-65
2021/05/17 12:14:04;;;;;;;4.25;1.52;;;;;;;24.15;38.54;97625.42;1981315;90;21104;-67
2021/05/17 12:17:05;;;;;;;11.33;2.20;;;;;;;24.06;38.55;97622.67;1996369;89;21065;-66
2021/05/17 12:20:07;;;;;;;4.72;1.30;;;;;;;23.83;38.41;97627.43;1981382;90;21565;-65
2021/05/17 12:23:08;;;;;;;4.22;1.60;;;;;;;23.55;38.27;97630.81;1996233;89;21132;-65
2021/05/17 12:26:10;;;;;;;7.20;1.85;;;;;;;23.34;38.72;97629.47;1981345;90;21079;-64
2021/05/17 12:29:11;;;;;;;5.67;1.47;;;;;;;23.23;38.50;97625.24;1996256;89;21093;-68
2021/05/17 12:32:13;;;;;;;9.85;1.75;;;;;;;23.05;38.60;97625.82;1981431;90;21078;-65
2021/05/17 12:35:14;;;;;;;6.58;1.35;;;;;;;23.01;39.64;97628.06;1996256;89;21596;-66
2021/05/17 12:38:16;;;;;;;7.67;1.30;;;;;;;22.89;38.96;97627.83;1981457;90;21043;-68
2021/05/17 12:41:18;;;;;;;8.23;2.80;;;;;;;22.75;39.83;97628.30;1996043;89;21591;-65
2021/05/17 12:44:19;;;;;;;5.42;1.40;;;;;;;22.62;40.13;97630.41;1981312;90;21074;-65
2021/05/17 12:47:21;;;;;;;9.35;1.90;;;;;;;22.51;39.90;97633.65;1996260;89;21144;-69
2021/05/17 12:50:22;;;;;;;10.78;2.80;;;;;;;22.27;40.39;97639.79;1981173;90;21138;-65
2021/05/17 12:53:23;;;;;;;9.38;2.62;;;;;;;21.12;44.47;97661.76;1996229;89;21057;-65
2021/05/17 12:56:26;;;;;;;12.45;2.75;;;;;;;19.56;49.89;97670.96;1981094;90;21102;-64
2021/05/17 12:59:27;;;;;;;9.40;2.60;;;;;;;18.23;54.47;97657.23;1996240;89;21124;-64
2021/05/17 13:02:29;;;;;;;7.78;2.77;;;;;;;17.24;57.53;97663.94;1981955;89;21134;-65
2021/05/17 13:05:30;;;;;;;10.40;2.72;;;;;;;16.48;60.46;97679.78;2001010;88;21089;-64
2021/05/17 13:08:32;;;;;;;11.90;3.10;;;;;;;15.93;62.34;97689.75;1968009;90;21145;-64
2021/05/17 13:11:33;;;;;;;11.60;3.02;;;;;;;15.48;64.46;97695.16;2000851;89;21620;-65
2021/05/17 13:14:35;;;;;;;8.15;2.62;;;;;;;15.02;68.40;97710.56;1968005;90;21163;-70
2021/05/17 13:17:36;;;;;;;10.40;2.52;;;;;;;14.77;68.50;97693.64;2000810;88;21622;-65
2021/05/17 13:20:38;;;;;;;11.03;2.65;;;;;;;14.61;70.12;97697.36;1968004;90;21124;-64
2021/05/17 13:32:50;;;;;;;14.28;3.00;;;;;;;14.60;73.28;97695.72;1948840;90;21088;-64
2021/05/17 13:35:51;;;;;;;11.25;2.50;;;;;;;14.39;73.95;97675.66;2001079;88;21089;-64
2021/05/17 13:38:53;;;;;;;15.32;2.90;;;;;;;14.13;73.89;97690.81;1967966;90;21564;-66
2021/05/17 13:41:54;;;;;;;15.33;2.83;;;;;;;13.91;74.64;97681.95;2001258;88;21053;-64
2021/05/17 13:44:56;;;;;;;14.57;3.03;;;;;;;13.91;74.64;97681.95;1968049;90;21750;-65
2021/05/17 13:47:57;;;;;;;14.58;3.20;;;;;;;13.89;75.05;97683.89;2000887;88;21551;-64
2021/05/17 13:50:58;;;;;;;15.53;3.00;;;;;;;13.98;75.55;97690.45;1968117;90;21033;-64
2021/05/17 13:54:00;;;;;;;15.28;3.15;;;;;;;14.02;75.76;97680.44;2000811;88;21052;-65
2021/05/17 13:57:01;;;;;;;13.80;3.47;;;;;;;14.03;76.30;97690.02;1967941;90;21083;-64
2021/05/17 14:00:03;;;;;;;10.45;2.90;;;;;;;14.02;74.80;97689.20;2000953;88;21096;-64
2021/05/17 14:03:05;;;;;;;15.58;3.08;;;;;;;14.03;75.17;97697.93;1968750;90;21733;-65
2021/05/17 14:06:06;;;;;;;13.08;3.17;;;;;;;13.95;75.27;97701.76;2002829;89;21100;-64
2021/05/17 14:09:08;;;;;;;12.83;3.30;;;;;;;13.68;75.01;97717.34;1982384;90;21050;-63
2021/05/17 14:12:09;;;;;;;16.00;3.37;;;;;;;13.34;75.54;97716.44;2003073;89;21148;-64
2021/05/17 14:15:11;;;;;;;12.17;2.97;;;;;;;13.12;76.61;97703.53;1982457;90;21358;-65
2021/05/17 14:18:12;;;;;;;8.33;2.60;;;;;;;13.02;78.25;97699.56;2002859;89;21587;-64
2021/05/17 14:21:14;;;;;;;13.10;3.23;;;;;;;12.98;78.69;97710.02;1982474;90;21066;-64
2021/05/17 14:24:15;;;;;;;10.80;3.20;;;;;;;12.99;79.13;97720.91;2002862;89;21048;-65
2021/05/17 14:27:16;;;;;;;13.67;2.97;;;;;;;12.91;78.56;97713.66;1982384;90;21035;-64
2021/05/17 14:30:19;;;;;;;11.77;3.10;;;;;;;12.90;78.26;97705.91;2002981;89;21077;-66
2021/05/17 14:33:20;;;;;;;12.58;2.90;;;;;;;12.81;78.99;97706.23;1982120;90;21059;-64
2021/05/17 14:36:22;;;;;;;8.13;2.58;;;;;;;12.72;78.62;97711.83;2002965;89;21049;-64
2021/05/17 14:39:23;;;;;;;11.13;2.90;;;;;;;12.71;79.32;97707.52;1982310;90;21657;-64
2021/05/17 14:42:25;;;;;;;10.53;2.60;;;;;;;12.76;77.65;97712.41;2003059;89;21065;-65
2021/05/17 14:45:28;;;;;;;9.87;2.83;;;;;;;12.76;78.72;97715.86;1982492;90;21039;-63
2021/05/17 14:48:29;;;;;;;9.20;2.50;;;;;;;12.85;78.17;97718.16;2002811;89;21111;-64